Flight Track Log - Related Links

Times and Time Zones

All times are in EDT time to prevent confusion due to time zone crossing. See the EJA982 flight status page for this flight to view local times or setup timezone preferences in your user account.

Time Position Orientation Groundspeed Altitude Reporting Facility
EDT Latitude Longitude Course Direction KTS MPH feet Rate Location/Type
Sun 07:14:58 PM 39.2636 -106.8800 256° West 199 229 9,300  Level Denver Center
Sun 07:15:59 PM 39.2894 -106.9553 294° West 245 282 12,600 2,829 Climbing Denver Center
Sun 07:17:01 PM 39.3094 -107.0500 285° West 267 307 15,100 1,887 Climbing Denver Center
Sun 07:18:03 PM 39.3697 -107.1364 312° West 315 362 16,500 1,355 Climbing Denver Center
Sun 07:19:05 PM 39.3903 -107.2722 281° West 370 426 17,900 1,500 Climbing Denver Center
Sun 07:20:00 PM 39.3035 -107.5494 256° West  Level FlightAware Approximate
Sun 07:20:07 PM 39.3950 -107.4028 273° West 385 443 19,600  Level Denver Center
Sun 07:21:09 PM 39.3836 -107.5622 265° West 397 457 21,300 1,500 Climbing Denver Center
Sun 07:22:11 PM 39.3708 -107.6997 263° West 402 463 22,700 1,500 Climbing Denver Center
Sun 07:23:13 PM 39.3547 -107.8667 263° West 416 479 24,400 1,403 Climbing Denver Center
Sun 07:24:15 PM 39.3417 -108.0133 263° West 426 490 25,600 1,306 Climbing Denver Center
Sun 07:25:17 PM 39.3253 -108.1878 263° West 435 501 27,100 1,355 Climbing Denver Center
Sun 07:26:19 PM 39.3092 -108.3403 262° West 449 517 28,400 1,403 Climbing Denver Center
Sun 07:27:21 PM 39.2964 -108.4928 264° West 431 496 30,000 1,463 Climbing Denver Center
Sun 07:28:22 PM 39.2775 -108.6742 262° West 450 518 31,400 1,317 Climbing Denver Center
Sun 07:29:24 PM 39.2611 -108.8333 262° West 463 533 32,700 1,597 Climbing Denver Center
Sun 07:30:26 PM 39.2425 -109.0175 263° West 461 531 34,700 1,722 Climbing Denver Center
Sun 07:31:19 PM 39.2294 -109.1450 263° West 455 524 36,000 1,722 Climbing Salt Lake Center
Sun 07:32:21 PM 39.2108 -109.3258 262° West 453 521 38,000 1,694 Climbing Salt Lake Center
Sun 07:33:23 PM 39.1956 -109.4778 263° West 447 514 39,500 976 Climbing Salt Lake Center
Sun 07:34:24 PM 39.1783 -109.6317 262° West 450 518 40,000 244 Climbing Salt Lake Center
Sun 07:35:26 PM 39.1703 -109.8167 267° West 462 532 40,000  Level Salt Lake Center
Sun 07:36:27 PM 39.1789 -109.9714 274° West 453 521 40,000  Level Salt Lake Center
Sun 07:36:50 PM 39.1814 -110.0481 272° West 451 519 40,000  Level Denver Center
Sun 07:37:29 PM 39.1869 -110.1489 274° West 445 512 40,000  Level Salt Lake Center
Sun 07:38:31 PM 39.1942 -110.3011 274° West 443 510 40,000  Level Salt Lake Center
Sun 07:39:32 PM 39.1997 -110.4531 273° West 444 511 40,000  Level Salt Lake Center
Sun 07:40:34 PM 39.2069 -110.6333 273° West 449 517 40,000  Level Salt Lake Center
Sun 07:41:36 PM 39.2117 -110.7864 272° West 447 514 40,000  Level Salt Lake Center
Sun 07:42:37 PM 39.2183 -110.9664 273° West 450 518 40,000  Level Salt Lake Center
Sun 07:43:39 PM 39.2239 -111.1211 273° West 452 520 40,000  Level Salt Lake Center
Sun 07:44:41 PM 39.2306 -111.2969 273° West 453 521 40,000  Level Salt Lake Center
Sun 07:45:42 PM 39.2358 -111.4600 272° West 455 524 40,000  Level Salt Lake Center
Sun 07:46:44 PM 39.2408 -111.6233 272° West 456 525 40,000  Level Salt Lake Center
Sun 07:47:46 PM 39.2444 -111.7861 272° West 455 524 40,000  Level Salt Lake Center
Sun 07:48:48 PM 39.2494 -111.9489 272° West 454 522 40,000  Level Salt Lake Center
Sun 07:49:50 PM 39.2553 -112.1136 273° West 457 526 40,000  Level Salt Lake Center
Sun 07:50:51 PM 39.2594 -112.3094 272° West 456 525 40,000  Level Salt Lake Center
Sun 07:51:53 PM 39.2633 -112.4756 272° West 460 529 40,000  Level Salt Lake Center
Sun 07:52:55 PM 39.2675 -112.6383 272° West 459 528 40,000  Level Salt Lake Center
Sun 07:53:56 PM 39.2697 -112.7956 271° West 456 525 40,000  Level Salt Lake Center
Sun 07:54:58 PM 39.2728 -112.9558 271° West 452 520 40,000  Level Salt Lake Center
Sun 07:56:00 PM 39.2761 -113.1197 272° West 457 526 40,000  Level Salt Lake Center
Sun 07:57:02 PM 39.2789 -113.3142 271° West 455 524 40,000  Level Salt Lake Center
Sun 07:58:03 PM 39.2819 -113.4758 271° West 454 522 40,000  Level Salt Lake Center
Sun 07:59:05 PM 39.2839 -113.6383 271° West 454 522 40,000  Level Salt Lake Center
Sun 08:00:07 PM 39.2856 -113.8008 271° West 455 524 40,000  Level Salt Lake Center
Sun 08:01:09 PM 39.2883 -113.9628 271° West 454 522 40,000  Level Salt Lake Center
Sun 08:02:10 PM 39.2889 -114.1253 270° West 455 524 40,000  Level Salt Lake Center
Sun 08:03:12 PM 39.2908 -114.2858 271° West 451 519 40,000  Level Salt Lake Center
Sun 08:04:14 PM 39.2894 -114.4647 269° West 457 526 40,000  Level Salt Lake Center
Sun 08:05:15 PM 39.2914 -114.6439 271° West 450 518 40,000  Level Salt Lake Center
Sun 08:06:17 PM 39.2917 -114.7964 270° West 445 512 40,000  Level Salt Lake Center
Sun 08:07:19 PM 39.2922 -114.9761 270° West 446 513 40,000  Level Salt Lake Center
Sun 08:08:21 PM 39.2931 -115.1286 270° West 444 511 40,000  Level Salt Lake Center
Sun 08:09:22 PM 39.2922 -115.2825 270° West 446 513 40,000  Level Salt Lake Center
Sun 08:10:24 PM 39.2925 -115.4625 270° West 448 516 40,000  Level Salt Lake Center
Sun 08:11:26 PM 39.2919 -115.6169 270° West 448 516 40,000  Level Salt Lake Center
Sun 08:12:27 PM 39.2903 -115.7967 269° West 449 517 40,000  Level Salt Lake Center
Sun 08:13:29 PM 39.2892 -115.9508 270° West 447 514 40,000  Level Salt Lake Center
Sun 08:14:31 PM 39.2886 -116.1064 270° West 451 519 40,000  Level Salt Lake Center
Sun 08:15:32 PM 39.2864 -116.2897 269° West 454 522 40,000  Level Salt Lake Center
Sun 08:16:34 PM 39.2856 -116.4469 270° West 456 525 40,000  Level Salt Lake Center
Sun 08:17:36 PM 39.2822 -116.6314 269° West 458 527 40,000  Level Salt Lake Center
Sun 08:18:37 PM 39.2808 -116.7903 269° West 462 532 40,000  Level Salt Lake Center
Sun 08:19:39 PM 39.2775 -116.9494 269° West 461 531 40,000  Level Salt Lake Center
Sun 08:20:41 PM 39.2753 -117.1361 269° West 464 534 40,000  Level Salt Lake Center
Sun 08:21:26 PM 39.2731 -117.2689 269° West 468 539 40,000 -56 Level Oakland Center
Sun 08:22:28 PM 39.2700 -117.4189 269° West 471 542 39,900 -683 Descending Oakland Center
Sun 08:23:29 PM 39.2664 -117.5875 268° West 471 542 38,600 -934 Descending Oakland Center
Sun 08:24:30 PM 39.2614 -117.7919 268° West 473 544 38,000 -293 Descending Oakland Center
Sun 08:25:32 PM 39.2575 -117.9608 268° West 472 543 38,000  Level Oakland Center
Sun 08:26:33 PM 39.2536 -118.1275 268° West 465 535 38,000  Level Oakland Center
Sun 08:27:34 PM 39.2497 -118.2925 268° West 459 528 38,000  Level Oakland Center
Sun 08:28:36 PM 39.2444 -118.4619 268° West 454 522 38,000  Level Oakland Center
Sun 08:29:37 PM 39.2397 -118.6244 268° West 453 521 38,000  Level Oakland Center
Sun 08:30:38 PM 39.2339 -118.7878 267° West 456 525 38,000  Level Oakland Center
Sun 08:31:40 PM 39.2300 -118.9467 268° West 448 516 38,000  Level Oakland Center
Sun 08:32:41 PM 39.2239 -119.1153 267° West 453 521 38,000 -1,033 Level Oakland Center
Sun 08:33:42 PM 39.2178 -119.2844 267° West 468 539 35,900 -2,361 Descending Oakland Center
Sun 08:34:43 PM 39.2117 -119.4614 268° West 489 563 33,200 -2,976 Descending Oakland Center
Sun 08:35:47 PM 39.2047 -119.6436 267° West 504 580 29,700 -3,415 Descending Oakland Center
Sun 08:36:46 PM 39.1992 -119.8231 268° West 502 578 26,200 -3,350 Descending Oakland Center
Sun 08:37:47 PM 39.1942 -119.9942 268° West 485 558 23,000 -3,073 Descending Oakland Center
Sun 08:38:49 PM 39.1656 -120.1553 257° West 430 495 19,900 -2,927 Descending Oakland Center
Sun 08:39:50 PM 39.1364 -120.3017 256° West 422 486 17,000 -1,918 Descending Oakland Center
Sun 08:40:51 PM 39.1075 -120.4475 256° West 421 484 16,000 -1,131 Descending Oakland Center
Sun 08:41:52 PM 39.0783 -120.5903 255° West 414 476 14,700 -1,707 Descending Oakland Center
Sun 08:42:54 PM 39.0492 -120.7306 255° West 410 472 12,500 -2,244 Descending Oakland Center
Sun 08:43:55 PM 39.0150 -120.8961 255° West 401 461 10,100 -1,279 Descending Oakland Center
Sun 08:44:56 PM 38.9897 -121.0128 254° West 340 391 9,900 -1,033 Descending Oakland Center
Sun 08:45:57 PM 38.9636 -121.1108 251° West 296 341 8,000 -1,871 Descending Oakland Center
Sun 08:46:29 PM 38.9500 -121.1667 253° West 294 338 7,000 -978 Descending Northern Cal TRACON
Sun 08:47:29 PM 38.9167 -121.2667 247° West 284 327 6,500 -1,100 Descending Northern Cal TRACON
Sun 08:48:29 PM 38.9000 -121.3667 258° West 274 315 4,800 -1,700 Descending Northern Cal TRACON
Sun 08:49:29 PM 38.8833 -121.4500 256° West 266 306 3,100 -1,350 Descending Northern Cal TRACON
Sun 08:50:29 PM 38.8500 -121.5333 243° Southwest 238 274 2,100 -550 Descending Northern Cal TRACON
Sun 08:51:29 PM 38.8167 -121.5833 229° Southwest 186 214 2,000 -350 Descending Northern Cal TRACON
Sun 08:52:29 PM 38.7667 -121.6000 195° South 172 198 1,400 -694 Descending Northern Cal TRACON
Sun 08:53:30 PM 38.7333 -121.6000 180° South 118 136 600 -787 Descending Northern Cal TRACON
Sun 08:56:00 PM 38.6954 -121.5908 173° South  Level Estimated
Sun 09:03:00 PM 38.6954 -121.5908 173° South  Level Estimated

Login

Don't have an account? Register now (free) for customized features, flight alerts, and more!